sensor_id;sensor_type;location;lat;lon;timestamp;pressure;altitude;pressure_sealevel;temperature;humidity
4410;BME280;2218;51.408;7.208;2023-04-10T00:01:55;100388.06;;;18.58;37.30
4410;BME280;2218;51.408;7.208;2023-04-10T00:04:22;100387.22;;;18.58;37.04
4410;BME280;2218;51.408;7.208;2023-04-10T00:06:51;100386.38;;;18.57;37.01
4410;BME280;2218;51.408;7.208;2023-04-10T00:09:17;100382.91;;;18.57;37.33
4410;BME280;2218;51.408;7.208;2023-04-10T00:11:44;100375.09;;;18.55;37.03
4410;BME280;2218;51.408;7.208;2023-04-10T00:14:11;100379.44;;;18.56;37.12
4410;BME280;2218;51.408;7.208;2023-04-10T00:16:38;100365.41;;;18.56;37.04
4410;BME280;2218;51.408;7.208;2023-04-10T00:19:05;100366.34;;;18.55;36.87
4410;BME280;2218;51.408;7.208;2023-04-10T00:21:33;100369.91;;;18.54;37.21
4410;BME280;2218;51.408;7.208;2023-04-10T00:24:01;100370.75;;;18.54;37.17
4410;BME280;2218;51.408;7.208;2023-04-10T00:26:29;100363.78;;;18.53;37.10
4410;BME280;2218;51.408;7.208;2023-04-10T00:28:56;100362.94;;;18.53;37.13
4410;BME280;2218;51.408;7.208;2023-04-10T00:31:23;100358.53;;;18.53;37.31
4410;BME280;2218;51.408;7.208;2023-04-10T00:33:50;100357.69;;;18.53;36.95
4410;BME280;2218;51.408;7.208;2023-04-10T00:36:17;100353.34;;;18.52;37.11
4410;BME280;2218;51.408;7.208;2023-04-10T00:38:45;100351.56;;;18.52;37.35
4410;BME280;2218;51.408;7.208;2023-04-10T00:41:13;100343.75;;;18.51;37.07
4410;BME280;2218;51.408;7.208;2023-04-10T00:43:40;100338.50;;;18.51;36.95
4410;BME280;2218;51.408;7.208;2023-04-10T00:46:07;100337.66;;;18.50;37.34
4410;BME280;2218;51.408;7.208;2023-04-10T00:48:35;100335.94;;;18.49;37.08
4410;BME280;2218;51.408;7.208;2023-04-10T00:51:03;100335.94;;;18.49;37.08
4410;BME280;2218;51.408;7.208;2023-04-10T00:53:31;100335.94;;;18.49;37.15
4410;BME280;2218;51.408;7.208;2023-04-10T00:56:00;100334.25;;;18.48;37.14
4410;BME280;2218;51.408;7.208;2023-04-10T00:58:29;100329.91;;;18.47;37.32
4410;BME280;2218;51.408;7.208;2023-04-10T01:00:56;100325.50;;;18.48;36.94
4410;BME280;2218;51.408;7.208;2023-04-10T01:03:24;100331.72;;;18.47;36.97
4410;BME280;2218;51.408;7.208;2023-04-10T01:06:03;100326.44;;;18.47;36.98
4410;BME280;2218;51.408;7.208;2023-04-10T01:08:42;100324.75;;;18.46;37.12
4410;BME280;2218;51.408;7.208;2023-04-10T01:11:25;100327.38;;;18.46;37.19
4410;BME280;2218;51.408;7.208;2023-04-10T01:14:08;100322.13;;;18.46;37.01
4410;BME280;2218;51.408;7.208;2023-04-10T01:16:46;100319.56;;;18.44;37.02
4410;BME280;2218;51.408;7.208;2023-04-10T01:19:35;100318.66;;;18.45;37.15
4410;BME280;2218;51.408;7.208;2023-04-10T01:22:12;100317.78;;;18.45;37.08
4410;BME280;2218;51.408;7.208;2023-04-10T01:24:59;100324.75;;;18.46;37.08
4410;BME280;2218;51.408;7.208;2023-04-10T01:27:43;100323.91;;;18.45;37.08
4410;BME280;2218;51.408;7.208;2023-04-10T01:30:17;100330.03;;;18.46;37.31
4410;BME280;2218;51.408;7.208;2023-04-10T01:32:48;100315.91;;;18.47;37.31
4410;BME280;2218;51.408;7.208;2023-04-10T01:35:19;100314.13;;;18.47;37.41
4410;BME280;2218;51.408;7.208;2023-04-10T01:37:48;100304.44;;;18.48;37.11
4410;BME280;2218;51.408;7.208;2023-04-10T01:40:19;100306.13;;;18.49;36.80
4410;BME280;2218;51.408;7.208;2023-04-10T01:42:50;100307.84;;;18.50;37.25
4410;BME280;2218;51.408;7.208;2023-04-10T01:45:26;100292.97;;;18.49;37.17
4410;BME280;2218;51.408;7.208;2023-04-10T01:47:55;100293.75;;;18.51;37.28
4410;BME280;2218;51.408;7.208;2023-04-10T01:50:22;100285.88;;;18.51;37.08
4410;BME280;2218;51.408;7.208;2023-04-10T01:52:50;100283.22;;;18.51;37.17
4410;BME280;2218;51.408;7.208;2023-04-10T01:55:22;100285.88;;;18.51;37.30
4410;BME280;2218;51.408;7.208;2023-04-10T01:57:59;100280.59;;;18.51;37.08
4410;BME280;2218;51.408;7.208;2023-04-10T02:00:28;100284.91;;;18.52;37.15
4410;BME280;2218;51.408;7.208;2023-04-10T02:02:55;100283.97;;;18.53;37.13
4410;BME280;2218;51.408;7.208;2023-04-10T02:05:33;100282.19;;;18.53;36.95
4410;BME280;2218;51.408;7.208;2023-04-10T02:08:11;100279.56;;;18.53;37.08
4410;BME280;2218;51.408;7.208;2023-04-10T02:10:47;100276.94;;;18.53;37.03
4410;BME280;2218;51.408;7.208;2023-04-10T02:13:21;100282.19;;;18.53;37.15
4410;BME280;2218;51.408;7.208;2023-04-10T02:15:54;100279.56;;;18.53;36.89
4410;BME280;2218;51.408;7.208;2023-04-10T02:18:23;100275.13;;;18.54;37.32
4410;BME280;2218;51.408;7.208;2023-04-10T02:20:53;100272.50;;;18.54;36.98
4410;BME280;2218;51.408;7.208;2023-04-10T02:23:21;100275.13;;;18.54;36.79
4410;BME280;2218;51.408;7.208;2023-04-10T02:25:49;100277.78;;;18.54;36.77
4410;BME280;2218;51.408;7.208;2023-04-10T02:28:15;100279.50;;;18.55;37.10
4410;BME280;2218;51.408;7.208;2023-04-10T02:30:43;100271.59;;;18.55;36.92
4410;BME280;2218;51.408;7.208;2023-04-10T02:33:13;100271.59;;;18.55;36.96
4410;BME280;2218;51.408;7.208;2023-04-10T02:35:40;100264.53;;;18.55;36.77
4410;BME280;2218;51.408;7.208;2023-04-10T02:38:07;100261.06;;;18.55;36.74
4410;BME280;2218;51.408;7.208;2023-04-10T02:40:36;100258.44;;;18.55;36.92
4410;BME280;2218;51.408;7.208;2023-04-10T02:43:21;100253.16;;;18.55;37.36
4410;BME280;2218;51.408;7.208;2023-04-10T02:45:48;100253.16;;;18.55;37.11
4410;BME280;2218;51.408;7.208;2023-04-10T02:48:23;100253.06;;;18.56;37.18
4410;BME280;2218;51.408;7.208;2023-04-10T02:50:57;100247.91;;;18.55;36.94
4410;BME280;2218;51.408;7.208;2023-04-10T02:53:27;100251.38;;;18.55;37.01
4410;BME280;2218;51.408;7.208;2023-04-10T02:55:57;100254.00;;;18.55;37.05
4410;BME280;2218;51.408;7.208;2023-04-10T02:58:24;100269.72;;;18.57;36.76
4410;BME280;2218;51.408;7.208;2023-04-10T03:00:54;100255.69;;;18.56;36.98
4410;BME280;2218;51.408;7.208;2023-04-10T03:03:39;100257.50;;;18.56;37.02
4410;BME280;2218;51.408;7.208;2023-04-10T03:06:08;100251.28;;;18.57;36.88
4410;BME280;2218;51.408;7.208;2023-04-10T03:08:36;100245.28;;;18.55;36.83
4410;BME280;2218;51.408;7.208;2023-04-10T03:11:06;100253.06;;;18.56;36.81
4410;BME280;2218;51.408;7.208;2023-04-10T03:13:33;100255.59;;;18.58;37.11
4410;BME280;2218;51.408;7.208;2023-04-10T03:16:00;100248.66;;;18.57;37.14
4410;BME280;2218;51.408;7.208;2023-04-10T03:18:27;100243.38;;;18.57;36.94
4410;BME280;2218;51.408;7.208;2023-04-10T03:20:56;100240.75;;;18.57;36.92
4410;BME280;2218;51.408;7.208;2023-04-10T03:23:23;100239.81;;;18.58;36.78
4410;BME280;2218;51.408;7.208;2023-04-10T03:25:51;100227.59;;;18.57;36.92
4410;BME280;2218;51.408;7.208;2023-04-10T03:28:21;100235.50;;;18.57;36.99
4410;BME280;2218;51.408;7.208;2023-04-10T03:30:49;100228.44;;;18.57;36.78
4410;BME280;2218;51.408;7.208;2023-04-10T03:33:16;100222.31;;;18.57;36.80
4410;BME280;2218;51.408;7.208;2023-04-10T03:35:44;100217.06;;;18.57;37.07
4410;BME280;2218;51.408;7.208;2023-04-10T03:38:13;100214.44;;;18.57;36.62
4410;BME280;2218;51.408;7.208;2023-04-10T03:40:40;100213.50;;;18.58;36.64
4410;BME280;2218;51.408;7.208;2023-04-10T03:43:09;100212.66;;;18.57;36.74
4410;BME280;2218;51.408;7.208;2023-04-10T03:45:36;100218.75;;;18.58;36.88
4410;BME280;2218;51.408;7.208;2023-04-10T03:48:03;100210.84;;;18.58;36.69
4410;BME280;2218;51.408;7.208;2023-04-10T03:50:38;100209.91;;;18.59;36.69
4410;BME280;2218;51.408;7.208;2023-04-10T03:53:05;100202.97;;;18.58;36.70
4410;BME280;2218;51.408;7.208;2023-04-10T03:55:34;100203.81;;;18.58;36.61
4410;BME280;2218;51.408;7.208;2023-04-10T03:58:02;100209.06;;;18.58;36.52
4410;BME280;2218;51.408;7.208;2023-04-10T04:00:30;100202.13;;;18.57;36.64
4410;BME280;2218;51.408;7.208;2023-04-10T04:03:09;100204.66;;;18.59;36.53
4410;BME280;2218;51.408;7.208;2023-04-10T04:06:04;100202.97;;;18.58;36.67
4410;BME280;2218;51.408;7.208;2023-04-10T04:08:42;100204.66;;;18.59;36.83
4410;BME280;2218;51.408;7.208;2023-04-10T04:11:21;100197.69;;;18.58;36.63
4410;BME280;2218;51.408;7.208;2023-04-10T04:14:01;100202.84;;;18.59;36.74
4410;BME280;2218;51.408;7.208;2023-04-10T04:16:42;100199.38;;;18.59;36.66
4410;BME280;2218;51.408;7.208;2023-04-10T04:19:41;100196.75;;;18.59;36.70
4410;BME280;2218;51.408;7.208;2023-04-10T04:22:15;100201.09;;;18.60;36.55
4410;BME280;2218;51.408;7.208;2023-04-10T04:25:01;100194.97;;;18.59;36.83
4410;BME280;2218;51.408;7.208;2023-04-10T04:27:55;100194.97;;;18.59;36.94
4410;BME280;2218;51.408;7.208;2023-04-10T04:30:36;100188.78;;;18.60;36.53
4410;BME280;2218;51.408;7.208;2023-04-10T04:33:10;100183.59;;;18.59;36.50
4410;BME280;2218;51.408;7.208;2023-04-10T04:35:59;100179.16;;;18.59;36.59
4410;BME280;2218;51.408;7.208;2023-04-10T04:38:55;100181.72;;;18.61;36.45
4410;BME280;2218;51.408;7.208;2023-04-10T04:41:32;100187.00;;;18.61;36.35
4410;BME280;2218;51.408;7.208;2023-04-10T04:44:12;100168.63;;;18.59;36.51
4410;BME280;2218;51.408;7.208;2023-04-10T04:47:09;100176.47;;;18.61;36.51
4410;BME280;2218;51.408;7.208;2023-04-10T04:50:07;100178.25;;;18.60;36.24
4410;BME280;2218;51.408;7.208;2023-04-10T04:53:13;100173.00;;;18.60;36.51
4410;BME280;2218;51.408;7.208;2023-04-10T04:56:00;100180.78;;;18.62;36.60
4410;BME280;2218;51.408;7.208;2023-04-10T04:58:43;100168.56;;;18.61;36.50
4410;BME280;2218;51.408;7.208;2023-04-10T05:01:32;100167.63;;;18.62;36.66
4410;BME280;2218;51.408;7.208;2023-04-10T05:04:25;100165.00;;;18.62;36.66
4410;BME280;2218;51.408;7.208;2023-04-10T05:06:56;100172.88;;;18.62;36.28
4410;BME280;2218;51.408;7.208;2023-04-10T05:09:52;100163.19;;;18.63;36.27
4410;BME280;2218;51.408;7.208;2023-04-10T05:12:40;100164.88;;;18.64;36.65
4410;BME280;2218;51.408;7.208;2023-04-10T05:15:24;100159.63;;;18.64;36.24
4410;BME280;2218;51.408;7.208;2023-04-10T05:18:24;100160.47;;;18.64;36.60
4410;BME280;2218;51.408;7.208;2023-04-10T05:21:09;100163.09;;;18.64;36.41
4410;BME280;2218;51.408;7.208;2023-04-10T05:23:50;100165.72;;;18.64;36.34
4410;BME280;2218;51.408;7.208;2023-04-10T05:26:36;100163.03;;;18.66;36.42
4410;BME280;2218;51.408;7.208;2023-04-10T05:29:32;100174.47;;;18.65;36.41
4410;BME280;2218;51.408;7.208;2023-04-10T05:32:31;100174.41;;;18.66;36.53
4410;BME280;2218;51.408;7.208;2023-04-10T05:35:20;100175.25;;;18.67;36.47
4410;BME280;2218;51.408;7.208;2023-04-10T05:37:57;100181.34;;;18.67;36.16
4410;BME280;2218;51.408;7.208;2023-04-10T05:41:00;100189.19;;;18.69;36.33
4410;BME280;2218;51.408;7.208;2023-04-10T05:43:40;100177.81;;;18.68;36.12
4410;BME280;2218;51.408;7.208;2023-04-10T05:46:19;100183.09;;;18.68;36.50
4410;BME280;2218;51.408;7.208;2023-04-10T05:49:09;100186.50;;;18.70;36.40
4410;BME280;2218;51.408;7.208;2023-04-10T05:51:52;100186.50;;;18.70;36.22
4410;BME280;2218;51.408;7.208;2023-04-10T05:54:42;100174.06;;;18.72;36.25
4410;BME280;2218;51.408;7.208;2023-04-10T05:57:24;100174.81;;;18.74;36.36
4410;BME280;2218;51.408;7.208;2023-04-10T06:00:24;100178.97;;;18.78;36.15
4410;BME280;2218;51.408;7.208;2023-04-10T06:03:20;100169.00;;;18.83;35.90
4410;BME280;2218;51.408;7.208;2023-04-10T06:05:53;100169.56;;;18.89;36.16
4410;BME280;2218;51.408;7.208;2023-04-10T06:08:22;100168.34;;;18.94;35.82
4410;BME280;2218;51.408;7.208;2023-04-10T06:10:48;100170.91;;;18.96;36.06
4410;BME280;2218;51.408;7.208;2023-04-10T06:13:16;100170.53;;;19.02;35.79
4410;BME280;2218;51.408;7.208;2023-04-10T06:15:43;100172.88;;;19.06;35.83
4410;BME280;2218;51.408;7.208;2023-04-10T06:18:10;100165.38;;;19.15;35.54
4410;BME280;2218;51.408;7.208;2023-04-10T06:20:37;100167.69;;;19.19;35.75
4410;BME280;2218;51.408;7.208;2023-04-10T06:23:04;100166.56;;;19.23;35.60
4410;BME280;2218;51.408;7.208;2023-04-10T06:25:32;100163.66;;;19.28;35.81
4410;BME280;2218;51.408;7.208;2023-04-10T06:27:59;100169.69;;;19.30;36.16
4410;BME280;2218;51.408;7.208;2023-04-10T06:30:26;100150.19;;;19.32;35.70
4410;BME280;2218;51.408;7.208;2023-04-10T06:32:55;100151.88;;;19.33;35.78
4410;BME280;2218;51.408;7.208;2023-04-10T06:35:22;100155.34;;;19.34;35.77
4410;BME280;2218;51.408;7.208;2023-04-10T06:37:49;100143.78;;;19.36;35.71
4410;BME280;2218;51.408;7.208;2023-04-10T06:40:16;100138.53;;;19.36;35.52
4410;BME280;2218;51.408;7.208;2023-04-10T06:42:44;100146.31;;;19.38;35.49
4410;BME280;2218;51.408;7.208;2023-04-10T06:45:14;100143.59;;;19.40;35.49
4410;BME280;2218;51.408;7.208;2023-04-10T06:47:41;100152.34;;;19.40;35.58
4410;BME280;2218;51.408;7.208;2023-04-10T06:50:09;100145.28;;;19.41;35.52
4410;BME280;2218;51.408;7.208;2023-04-10T06:52:36;100151.31;;;19.43;35.57
4410;BME280;2218;51.408;7.208;2023-04-10T06:55:04;100148.56;;;19.44;35.59
4410;BME280;2218;51.408;7.208;2023-04-10T06:57:31;100157.34;;;19.45;35.67
4410;BME280;2218;51.408;7.208;2023-04-10T06:59:59;100157.34;;;19.45;35.63
4410;BME280;2218;51.408;7.208;2023-04-10T07:02:26;100154.59;;;19.46;35.53
4410;BME280;2218;51.408;7.208;2023-04-10T07:04:53;100151.84;;;19.48;35.52
4410;BME280;2218;51.408;7.208;2023-04-10T07:07:21;100150.91;;;19.49;35.42
4410;BME280;2218;51.408;7.208;2023-04-10T07:09:48;100149.88;;;19.51;35.23
4410;BME280;2218;51.408;7.208;2023-04-10T07:12:15;100143.66;;;19.52;35.34
4410;BME280;2218;51.408;7.208;2023-04-10T07:14:42;100145.34;;;19.53;35.32
4410;BME280;2218;51.408;7.208;2023-04-10T07:17:10;100135.66;;;19.54;35.26
4410;BME280;2218;51.408;7.208;2023-04-10T07:19:37;100139.16;;;19.54;35.31
4410;BME280;2218;51.408;7.208;2023-04-10T07:22:05;100135.47;;;19.57;35.25
4410;BME280;2218;51.408;7.208;2023-04-10T07:24:32;100119.75;;;19.55;35.26
4410;BME280;2218;51.408;7.208;2023-04-10T07:26:59;100116.28;;;19.55;35.18
4410;BME280;2218;51.408;7.208;2023-04-10T07:29:28;100116.28;;;19.55;35.32
4410;BME280;2218;51.408;7.208;2023-04-10T07:31:55;100110.16;;;19.54;35.25
4410;BME280;2218;51.408;7.208;2023-04-10T07:34:25;100109.28;;;19.54;35.08
4410;BME280;2218;51.408;7.208;2023-04-10T07:36:52;100111.00;;;19.55;35.44
4410;BME280;2218;51.408;7.208;2023-04-10T07:39:18;100106.66;;;19.54;35.26
4410;BME280;2218;51.408;7.208;2023-04-10T07:41:45;100109.28;;;19.54;34.94
4410;BME280;2218;51.408;7.208;2023-04-10T07:44:12;100101.38;;;19.54;35.20
4410;BME280;2218;51.408;7.208;2023-04-10T07:46:40;100094.34;;;19.54;35.41
4410;BME280;2218;51.408;7.208;2023-04-10T07:49:07;100093.47;;;19.54;35.47
4410;BME280;2218;51.408;7.208;2023-04-10T07:51:35;100084.63;;;19.55;35.33
4410;BME280;2218;51.408;7.208;2023-04-10T07:54:02;100084.63;;;19.55;35.39
4410;BME280;2218;51.408;7.208;2023-04-10T07:56:29;100081.16;;;19.54;35.18
4410;BME280;2218;51.408;7.208;2023-04-10T07:58:58;100078.53;;;19.54;35.42
4410;BME280;2218;51.408;7.208;2023-04-10T08:01:26;100072.38;;;19.54;35.20
4410;BME280;2218;51.408;7.208;2023-04-10T08:03:53;100072.38;;;19.54;34.44
4410;BME280;2218;51.408;7.208;2023-04-10T08:06:21;100073.31;;;19.53;35.27
4410;BME280;2218;51.408;7.208;2023-04-10T08:08:49;100067.09;;;19.54;35.26
4410;BME280;2218;51.408;7.208;2023-04-10T08:11:25;100065.41;;;19.53;35.21
4410;BME280;2218;51.408;7.208;2023-04-10T08:13:54;100063.72;;;19.52;35.24
4410;BME280;2218;51.408;7.208;2023-04-10T08:16:23;100054.03;;;19.52;34.91
4410;BME280;2218;51.408;7.208;2023-04-10T08:18:51;100054.88;;;19.53;35.10
4410;BME280;2218;51.408;7.208;2023-04-10T08:21:18;100055.72;;;19.53;35.12
4410;BME280;2218;51.408;7.208;2023-04-10T08:23:45;100051.28;;;19.54;35.32
4410;BME280;2218;51.408;7.208;2023-04-10T08:26:13;100045.16;;;19.53;34.86
4410;BME280;2218;51.408;7.208;2023-04-10T08:28:41;100048.75;;;19.52;35.41
4410;BME280;2218;51.408;7.208;2023-04-10T08:31:12;100038.22;;;19.52;35.19
4410;BME280;2218;51.408;7.208;2023-04-10T08:33:39;100037.38;;;19.52;35.00
4410;BME280;2218;51.408;7.208;2023-04-10T08:36:07;100036.53;;;19.51;35.06
4410;BME280;2218;51.408;7.208;2023-04-10T08:38:34;100034.84;;;19.50;35.04
4410;BME280;2218;51.408;7.208;2023-04-10T08:41:01;100030.41;;;19.51;35.15
4410;BME280;2218;51.408;7.208;2023-04-10T08:43:29;100026.94;;;19.50;34.96
4410;BME280;2218;51.408;7.208;2023-04-10T08:45:58;100034.00;;;19.50;34.72
4410;BME280;2218;51.408;7.208;2023-04-10T08:48:31;100019.03;;;19.50;34.84
4410;BME280;2218;51.408;7.208;2023-04-10T08:51:03;100017.34;;;19.49;35.10
4410;BME280;2218;51.408;7.208;2023-04-10T08:53:37;100017.34;;;19.49;34.95
4410;BME280;2218;51.408;7.208;2023-04-10T08:56:07;100009.31;;;19.51;34.76
4410;BME280;2218;51.408;7.208;2023-04-10T08:58:39;100009.44;;;19.49;34.80
4410;BME280;2218;51.408;7.208;2023-04-10T09:01:06;100003.28;;;19.49;34.77
4410;BME280;2218;51.408;7.208;2023-04-10T09:03:34;99997.09;;;19.50;34.62
4410;BME280;2218;51.408;7.208;2023-04-10T09:06:02;99995.38;;;19.49;34.77
4410;BME280;2218;51.408;7.208;2023-04-10T09:08:30;99990.13;;;19.49;34.83
4410;BME280;2218;51.408;7.208;2023-04-10T09:10:57;99976.94;;;19.49;34.60
4410;BME280;2218;51.408;7.208;2023-04-10T09:13:38;99974.28;;;19.49;34.53
4410;BME280;2218;51.408;7.208;2023-04-10T09:16:06;99976.09;;;19.48;34.81
4410;BME280;2218;51.408;7.208;2023-04-10T09:18:41;99973.44;;;19.48;34.32
4410;BME280;2218;51.408;7.208;2023-04-10T09:21:10;99971.66;;;19.49;34.87
4410;BME280;2218;51.408;7.208;2023-04-10T09:23:37;99971.66;;;19.49;34.69
4410;BME280;2218;51.408;7.208;2023-04-10T09:26:25;99967.34;;;19.48;34.60
4410;BME280;2218;51.408;7.208;2023-04-10T09:29:01;99966.50;;;19.47;34.56
4410;BME280;2218;51.408;7.208;2023-04-10T09:31:31;99969.03;;;19.49;34.55
4410;BME280;2218;51.408;7.208;2023-04-10T09:34:12;99963.75;;;19.49;34.53
4410;BME280;2218;51.408;7.208;2023-04-10T09:36:40;99965.53;;;19.48;34.74
4410;BME280;2218;51.408;7.208;2023-04-10T09:39:09;99964.63;;;19.49;34.56
4410;BME280;2218;51.408;7.208;2023-04-10T09:41:50;99962.91;;;19.48;34.86
4410;BME280;2218;51.408;7.208;2023-04-10T09:44:29;99972.63;;;19.48;34.94
4410;BME280;2218;51.408;7.208;2023-04-10T09:46:56;99969.97;;;19.48;34.87
4410;BME280;2218;51.408;7.208;2023-04-10T09:49:23;99970.94;;;19.47;34.87
4410;BME280;2218;51.408;7.208;2023-04-10T09:51:50;99972.72;;;19.46;34.73
4410;BME280;2218;51.408;7.208;2023-04-10T09:54:17;99976.19;;;19.47;34.74
4410;BME280;2218;51.408;7.208;2023-04-10T09:56:46;99977.88;;;19.48;34.76
4410;BME280;2218;51.408;7.208;2023-04-10T09:59:15;99963.03;;;19.47;34.58
4410;BME280;2218;51.408;7.208;2023-04-10T10:01:43;99949.84;;;19.47;34.73
4410;BME280;2218;51.408;7.208;2023-04-10T10:04:13;99944.56;;;19.47;34.60
4410;BME280;2218;51.408;7.208;2023-04-10T10:06:42;99944.56;;;19.47;34.49
4410;BME280;2218;51.408;7.208;2023-04-10T10:09:09;99948.03;;;19.47;34.61
4410;BME280;2218;51.408;7.208;2023-04-10T10:11:37;99946.38;;;19.46;34.40
4410;BME280;2218;51.408;7.208;2023-04-10T10:14:12;99940.13;;;19.47;34.47
4410;BME280;2218;51.408;7.208;2023-04-10T10:16:46;99936.66;;;19.47;34.79
4410;BME280;2218;51.408;7.208;2023-04-10T10:19:20;99939.31;;;19.47;34.47
4410;BME280;2218;51.408;7.208;2023-04-10T10:21:52;99927.06;;;19.46;34.66
4410;BME280;2218;51.408;7.208;2023-04-10T10:24:22;99934.03;;;19.47;34.48
4410;BME280;2218;51.408;7.208;2023-04-10T10:26:53;99923.47;;;19.47;34.53
4410;BME280;2218;51.408;7.208;2023-04-10T10:29:23;99912.94;;;19.47;34.57
4410;BME280;2218;51.408;7.208;2023-04-10T10:31:52;99912.09;;;19.46;34.54
4410;BME280;2218;51.408;7.208;2023-04-10T10:34:21;99902.41;;;19.47;34.81
4410;BME280;2218;51.408;7.208;2023-04-10T10:36:48;99902.41;;;19.47;34.62
4410;BME280;2218;51.408;7.208;2023-04-10T10:39:28;99894.50;;;19.47;34.77
4410;BME280;2218;51.408;7.208;2023-04-10T10:42:12;99895.44;;;19.46;34.73
4410;BME280;2218;51.408;7.208;2023-04-10T10:44:50;99881.31;;;19.47;34.44
4410;BME280;2218;51.408;7.208;2023-04-10T10:47:26;99883.94;;;19.47;34.24
4410;BME280;2218;51.408;7.208;2023-04-10T10:49:56;99867.28;;;19.46;34.48
4410;BME280;2218;51.408;7.208;2023-04-10T10:52:45;99854.94;;;19.47;34.45
4410;BME280;2218;51.408;7.208;2023-04-10T10:55:31;99863.59;;;19.49;34.55
4410;BME280;2218;51.408;7.208;2023-04-10T10:58:03;99845.38;;;19.46;34.60
4410;BME280;2218;51.408;7.208;2023-04-10T11:01:05;99846.94;;;19.48;34.39
4410;BME280;2218;51.408;7.208;2023-04-10T11:03:34;99842.63;;;19.47;34.47
4410;BME280;2218;51.408;7.208;2023-04-10T11:06:05;99835.53;;;19.48;34.30
4410;BME280;2218;51.408;7.208;2023-04-10T11:08:41;99829.31;;;19.49;34.46
4410;BME280;2218;51.408;7.208;2023-04-10T11:11:16;99823.31;;;19.47;34.29
4410;BME280;2218;51.408;7.208;2023-04-10T11:14:15;99819.72;;;19.48;34.25
4410;BME280;2218;51.408;7.208;2023-04-10T11:16:47;99813.50;;;19.49;34.56
4410;BME280;2218;51.408;7.208;2023-04-10T11:19:15;99803.06;;;19.47;34.85
4410;BME280;2218;51.408;7.208;2023-04-10T11:22:04;99810.03;;;19.48;34.29
4410;BME280;2218;51.408;7.208;2023-04-10T11:24:52;99798.66;;;19.48;34.19
4410;BME280;2218;51.408;7.208;2023-04-10T11:27:41;99783.78;;;19.47;34.21
4410;BME280;2218;51.408;7.208;2023-04-10T11:30:31;99784.63;;;19.47;34.24
4410;BME280;2218;51.408;7.208;2023-04-10T11:33:00;99774.94;;;19.48;34.37
4410;BME280;2218;51.408;7.208;2023-04-10T11:35:29;99774.94;;;19.48;34.21
4410;BME280;2218;51.408;7.208;2023-04-10T11:38:15;99773.97;;;19.49;34.54
4410;BME280;2218;51.408;7.208;2023-04-10T11:41:01;99761.75;;;19.48;34.43
4410;BME280;2218;51.408;7.208;2023-04-10T11:43:30;99769.56;;;19.49;34.29
4410;BME280;2218;51.408;7.208;2023-04-10T11:46:02;99753.84;;;19.48;34.21
4410;BME280;2218;51.408;7.208;2023-04-10T11:48:31;99758.28;;;19.47;34.55
4410;BME280;2218;51.408;7.208;2023-04-10T11:51:09;99759.09;;;19.48;34.48
4410;BME280;2218;51.408;7.208;2023-04-10T11:53:36;99747.72;;;19.47;34.53
4410;BME280;2218;51.408;7.208;2023-04-10T11:56:04;99746.78;;;19.48;34.51
4410;BME280;2218;51.408;7.208;2023-04-10T11:58:32;99744.13;;;19.48;34.27
4410;BME280;2218;51.408;7.208;2023-04-10T12:01:01;99744.97;;;19.49;34.29
4410;BME280;2218;51.408;7.208;2023-04-10T12:03:37;99728.31;;;19.48;34.40
4410;BME280;2218;51.408;7.208;2023-04-10T12:06:12;99718.72;;;19.47;34.56
4410;BME280;2218;51.408;7.208;2023-04-10T12:08:41;99712.41;;;19.50;34.30
4410;BME280;2218;51.408;7.208;2023-04-10T12:11:10;99720.31;;;19.50;34.43
4410;BME280;2218;51.408;7.208;2023-04-10T12:13:38;99722.13;;;19.49;34.40
4410;BME280;2218;51.408;7.208;2023-04-10T12:16:07;99712.41;;;19.50;34.17
4410;BME280;2218;51.408;7.208;2023-04-10T12:18:35;99709.78;;;19.50;34.36
4410;BME280;2218;51.408;7.208;2023-04-10T12:21:04;99701.88;;;19.50;34.38
4410;BME280;2218;51.408;7.208;2023-04-10T12:23:35;99696.59;;;19.50;34.50
4410;BME280;2218;51.408;7.208;2023-04-10T12:26:11;99697.53;;;19.49;34.76
4410;BME280;2218;51.408;7.208;2023-04-10T12:28:40;99696.59;;;19.50;34.50
4410;BME280;2218;51.408;7.208;2023-04-10T12:31:08;99689.63;;;19.49;34.58
4410;BME280;2218;51.408;7.208;2023-04-10T12:33:35;99688.78;;;19.48;34.34
4410;BME280;2218;51.408;7.208;2023-04-10T12:36:02;99684.34;;;19.49;34.60
4410;BME280;2218;51.408;7.208;2023-04-10T12:38:41;99674.78;;;19.48;34.40
4410;BME280;2218;51.408;7.208;2023-04-10T12:41:11;99661.59;;;19.48;34.63
4410;BME280;2218;51.408;7.208;2023-04-10T12:43:40;99668.53;;;19.49;34.40
4410;BME280;2218;51.408;7.208;2023-04-10T12:46:09;99660.53;;;19.50;34.37
4410;BME280;2218;51.408;7.208;2023-04-10T12:48:36;99657.06;;;19.50;34.26
4410;BME280;2218;51.408;7.208;2023-04-10T12:51:03;99657.91;;;19.50;34.61
4410;BME280;2218;51.408;7.208;2023-04-10T12:53:43;99659.72;;;19.50;35.00
4410;BME280;2218;51.408;7.208;2023-04-10T12:56:11;99652.63;;;19.50;34.55
4410;BME280;2218;51.408;7.208;2023-04-10T12:58:38;99654.44;;;19.50;34.31
4410;BME280;2218;51.408;7.208;2023-04-10T13:01:08;99649.16;;;19.50;34.35
4410;BME280;2218;51.408;7.208;2023-04-10T13:03:36;99638.63;;;19.50;34.25
4410;BME280;2218;51.408;7.208;2023-04-10T13:06:05;99633.34;;;19.50;34.43
4410;BME280;2218;51.408;7.208;2023-04-10T13:08:34;99636.91;;;19.49;34.31
4410;BME280;2218;51.408;7.208;2023-04-10T13:11:02;99628.16;;;19.48;34.62
4410;BME280;2218;51.408;7.208;2023-04-10T13:13:30;99621.09;;;19.49;34.46
4410;BME280;2218;51.408;7.208;2023-04-10T13:15:57;99619.41;;;19.48;34.47
4410;BME280;2218;51.408;7.208;2023-04-10T13:18:24;99624.69;;;19.48;34.28
4410;BME280;2218;51.408;7.208;2023-04-10T13:20:52;99612.47;;;19.47;34.45
4410;BME280;2218;51.408;7.208;2023-04-10T13:23:19;99615.09;;;19.47;34.34
4410;BME280;2218;51.408;7.208;2023-04-10T13:25:46;99608.03;;;19.47;34.54
4410;BME280;2218;51.408;7.208;2023-04-10T13:28:15;99613.31;;;19.47;34.31
4410;BME280;2218;51.408;7.208;2023-04-10T13:30:43;99606.34;;;19.46;33.84
4410;BME280;2218;51.408;7.208;2023-04-10T13:33:10;99598.34;;;19.48;33.94
4410;BME280;2218;51.408;7.208;2023-04-10T13:35:38;99601.09;;;19.46;34.07
4410;BME280;2218;51.408;7.208;2023-04-10T13:38:05;99591.38;;;19.47;34.11
4410;BME280;2218;51.408;7.208;2023-04-10T13:40:34;99588.75;;;19.47;34.24
4410;BME280;2218;51.408;7.208;2023-04-10T13:43:00;99585.28;;;19.46;34.28
4410;BME280;2218;51.408;7.208;2023-04-10T13:45:29;99569.47;;;19.46;33.89